sensor_id;sensor_type;location;lat;lon;timestamp;P1;durP1;ratioP1;P2;durP2;ratioP2
10452;SDS011;5274;51.992;8.518;2024-02-26T00:01:35;19.52;;;18.35;;
10452;SDS011;5274;51.992;8.518;2024-02-26T00:04:01;19.90;;;18.70;;
10452;SDS011;5274;51.992;8.518;2024-02-26T00:06:27;19.88;;;18.67;;
10452;SDS011;5274;51.992;8.518;2024-02-26T00:08:56;19.52;;;18.42;;
10452;SDS011;5274;51.992;8.518;2024-02-26T00:11:22;19.88;;;18.67;;
10452;SDS011;5274;51.992;8.518;2024-02-26T00:13:47;19.77;;;18.58;;
10452;SDS011;5274;51.992;8.518;2024-02-26T00:16:13;18.93;;;17.73;;
10452;SDS011;5274;51.992;8.518;2024-02-26T00:18:38;18.95;;;17.75;;
10452;SDS011;5274;51.992;8.518;2024-02-26T00:21:04;18.93;;;17.83;;
10452;SDS011;5274;51.992;8.518;2024-02-26T00:23:29;18.20;;;17.20;;
10452;SDS011;5274;51.992;8.518;2024-02-26T00:25:55;19.13;;;18.03;;
10452;SDS011;5274;51.992;8.518;2024-02-26T00:28:21;17.83;;;16.90;;
10452;SDS011;5274;51.992;8.518;2024-02-26T00:30:46;17.90;;;16.90;;
10452;SDS011;5274;51.992;8.518;2024-02-26T00:33:12;18.50;;;17.40;;
10452;SDS011;5274;51.992;8.518;2024-02-26T00:35:40;18.63;;;17.42;;
10452;SDS011;5274;51.992;8.518;2024-02-26T00:38:05;18.80;;;17.58;;
10452;SDS011;5274;51.992;8.518;2024-02-26T00:40:31;18.40;;;17.40;;
10452;SDS011;5274;51.992;8.518;2024-02-26T00:42:56;18.75;;;17.65;;
10452;SDS011;5274;51.992;8.518;2024-02-26T00:45:22;17.80;;;16.80;;
10452;SDS011;5274;51.992;8.518;2024-02-26T00:47:47;18.88;;;17.83;;
10452;SDS011;5274;51.992;8.518;2024-02-26T00:50:14;18.33;;;17.23;;
10452;SDS011;5274;51.992;8.518;2024-02-26T00:52:39;18.15;;;17.15;;
10452;SDS011;5274;51.992;8.518;2024-02-26T00:55:05;18.20;;;17.10;;
10452;SDS011;5274;51.992;8.518;2024-02-26T00:57:31;17.83;;;16.83;;
10452;SDS011;5274;51.992;8.518;2024-02-26T00:59:56;17.23;;;16.33;;
10452;SDS011;5274;51.992;8.518;2024-02-26T01:02:22;18.37;;;17.30;;
10452;SDS011;5274;51.992;8.518;2024-02-26T01:04:48;18.00;;;17.00;;
10452;SDS011;5274;51.992;8.518;2024-02-26T01:07:13;17.93;;;16.93;;
10452;SDS011;5274;51.992;8.518;2024-02-26T01:09:39;17.90;;;17.00;;
10452;SDS011;5274;51.992;8.518;2024-02-26T01:12:04;17.20;;;16.30;;
10452;SDS011;5274;51.992;8.518;2024-02-26T01:14:30;17.70;;;16.70;;
10452;SDS011;5274;51.992;8.518;2024-02-26T01:16:56;17.60;;;16.70;;
10452;SDS011;5274;51.992;8.518;2024-02-26T01:19:21;17.85;;;16.85;;
10452;SDS011;5274;51.992;8.518;2024-02-26T01:21:47;17.80;;;16.80;;
10452;SDS011;5274;51.992;8.518;2024-02-26T01:24:12;17.80;;;16.73;;
10452;SDS011;5274;51.992;8.518;2024-02-26T01:26:38;17.60;;;16.60;;
10452;SDS011;5274;51.992;8.518;2024-02-26T01:29:04;17.65;;;16.65;;
10452;SDS011;5274;51.992;8.518;2024-02-26T01:31:29;17.57;;;16.57;;
10452;SDS011;5274;51.992;8.518;2024-02-26T01:33:55;17.85;;;16.75;;
10452;SDS011;5274;51.992;8.518;2024-02-26T01:36:20;18.00;;;17.00;;
10452;SDS011;5274;51.992;8.518;2024-02-26T01:38:46;17.50;;;16.40;;
10452;SDS011;5274;51.992;8.518;2024-02-26T01:41:13;17.10;;;16.20;;
10452;SDS011;5274;51.992;8.518;2024-02-26T01:43:39;17.80;;;16.80;;
10452;SDS011;5274;51.992;8.518;2024-02-26T01:46:05;17.73;;;16.73;;
10452;SDS011;5274;51.992;8.518;2024-02-26T01:48:31;17.88;;;16.83;;
10452;SDS011;5274;51.992;8.518;2024-02-26T01:50:57;17.83;;;16.77;;
10452;SDS011;5274;51.992;8.518;2024-02-26T01:53:22;17.40;;;16.40;;
10452;SDS011;5274;51.992;8.518;2024-02-26T01:55:48;17.47;;;16.50;;
10452;SDS011;5274;51.992;8.518;2024-02-26T01:58:14;18.20;;;17.10;;
10452;SDS011;5274;51.992;8.518;2024-02-26T02:00:40;17.50;;;16.50;;
10452;SDS011;5274;51.992;8.518;2024-02-26T02:03:06;17.52;;;16.52;;
10452;SDS011;5274;51.992;8.518;2024-02-26T02:05:32;17.70;;;16.80;;
10452;SDS011;5274;51.992;8.518;2024-02-26T02:07:58;17.95;;;16.95;;
10452;SDS011;5274;51.992;8.518;2024-02-26T02:10:24;18.08;;;17.10;;
10452;SDS011;5274;51.992;8.518;2024-02-26T02:12:51;18.38;;;17.30;;
10452;SDS011;5274;51.992;8.518;2024-02-26T02:15:17;17.83;;;16.85;;
10452;SDS011;5274;51.992;8.518;2024-02-26T02:17:43;18.15;;;16.95;;
10452;SDS011;5274;51.992;8.518;2024-02-26T02:20:09;17.87;;;16.83;;
10452;SDS011;5274;51.992;8.518;2024-02-26T02:22:39;17.83;;;16.83;;
10452;SDS011;5274;51.992;8.518;2024-02-26T02:25:05;18.10;;;16.90;;
10452;SDS011;5274;51.992;8.518;2024-02-26T02:27:31;17.50;;;16.60;;
10452;SDS011;5274;51.992;8.518;2024-02-26T02:29:56;18.23;;;17.23;;
10452;SDS011;5274;51.992;8.518;2024-02-26T02:32:22;18.40;;;17.40;;
10452;SDS011;5274;51.992;8.518;2024-02-26T02:34:50;18.20;;;17.10;;
10452;SDS011;5274;51.992;8.518;2024-02-26T02:37:16;17.70;;;16.70;;
10452;SDS011;5274;51.992;8.518;2024-02-26T02:39:41;18.00;;;17.00;;
10452;SDS011;5274;51.992;8.518;2024-02-26T02:42:08;18.00;;;17.00;;
10452;SDS011;5274;51.992;8.518;2024-02-26T02:44:34;17.90;;;16.90;;
10452;SDS011;5274;51.992;8.518;2024-02-26T02:46:59;17.77;;;16.77;;
10452;SDS011;5274;51.992;8.518;2024-02-26T02:49:25;18.20;;;17.10;;
10452;SDS011;5274;51.992;8.518;2024-02-26T02:51:51;17.85;;;16.77;;
10452;SDS011;5274;51.992;8.518;2024-02-26T02:54:18;17.70;;;16.70;;
10452;SDS011;5274;51.992;8.518;2024-02-26T02:56:43;17.25;;;16.35;;
10452;SDS011;5274;51.992;8.518;2024-02-26T02:59:09;16.80;;;15.90;;
10452;SDS011;5274;51.992;8.518;2024-02-26T03:01:34;16.98;;;16.08;;
10452;SDS011;5274;51.992;8.518;2024-02-26T03:04:00;17.13;;;16.23;;
10452;SDS011;5274;51.992;8.518;2024-02-26T03:06:25;17.15;;;16.15;;
10452;SDS011;5274;51.992;8.518;2024-02-26T03:08:52;16.80;;;15.90;;
10452;SDS011;5274;51.992;8.518;2024-02-26T03:11:19;17.10;;;16.20;;
10452;SDS011;5274;51.992;8.518;2024-02-26T03:13:45;17.10;;;16.20;;
10452;SDS011;5274;51.992;8.518;2024-02-26T03:16:10;16.93;;;16.07;;
10452;SDS011;5274;51.992;8.518;2024-02-26T03:18:38;17.40;;;16.40;;
10452;SDS011;5274;51.992;8.518;2024-02-26T03:21:04;17.40;;;16.30;;
10452;SDS011;5274;51.992;8.518;2024-02-26T03:23:30;17.27;;;16.37;;
10452;SDS011;5274;51.992;8.518;2024-02-26T03:25:57;17.10;;;16.10;;
10452;SDS011;5274;51.992;8.518;2024-02-26T03:28:23;17.30;;;16.35;;
10452;SDS011;5274;51.992;8.518;2024-02-26T03:30:49;17.55;;;16.60;;
10452;SDS011;5274;51.992;8.518;2024-02-26T03:33:14;17.33;;;16.43;;
10452;SDS011;5274;51.992;8.518;2024-02-26T03:35:39;17.40;;;16.40;;
10452;SDS011;5274;51.992;8.518;2024-02-26T03:38:05;16.40;;;15.60;;
10452;SDS011;5274;51.992;8.518;2024-02-26T03:40:31;16.55;;;15.65;;
10452;SDS011;5274;51.992;8.518;2024-02-26T03:42:57;16.45;;;15.65;;
10452;SDS011;5274;51.992;8.518;2024-02-26T03:45:23;16.58;;;15.70;;
10452;SDS011;5274;51.992;8.518;2024-02-26T03:47:48;16.93;;;16.03;;
10452;SDS011;5274;51.992;8.518;2024-02-26T03:50:14;17.10;;;16.20;;
10452;SDS011;5274;51.992;8.518;2024-02-26T03:52:39;16.63;;;15.77;;
10452;SDS011;5274;51.992;8.518;2024-02-26T03:55:05;16.73;;;15.82;;
10452;SDS011;5274;51.992;8.518;2024-02-26T03:57:30;17.17;;;16.20;;
10452;SDS011;5274;51.992;8.518;2024-02-26T03:59:56;16.70;;;15.90;;
10452;SDS011;5274;51.992;8.518;2024-02-26T04:02:22;16.98;;;16.17;;
10452;SDS011;5274;51.992;8.518;2024-02-26T04:04:48;17.25;;;16.20;;
10452;SDS011;5274;51.992;8.518;2024-02-26T04:07:13;16.87;;;16.07;;
10452;SDS011;5274;51.992;8.518;2024-02-26T04:09:39;16.53;;;15.70;;
10452;SDS011;5274;51.992;8.518;2024-02-26T04:12:05;17.05;;;16.15;;
10452;SDS011;5274;51.992;8.518;2024-02-26T04:14:30;17.00;;;16.03;;
10452;SDS011;5274;51.992;8.518;2024-02-26T04:16:56;17.13;;;16.20;;
10452;SDS011;5274;51.992;8.518;2024-02-26T04:19:21;17.43;;;16.50;;
10452;SDS011;5274;51.992;8.518;2024-02-26T04:21:47;17.30;;;16.40;;
10452;SDS011;5274;51.992;8.518;2024-02-26T04:24:12;16.70;;;15.90;;
10452;SDS011;5274;51.992;8.518;2024-02-26T04:26:38;17.23;;;16.33;;
10452;SDS011;5274;51.992;8.518;2024-02-26T04:29:04;17.00;;;16.10;;
10452;SDS011;5274;51.992;8.518;2024-02-26T04:31:29;17.40;;;16.50;;
10452;SDS011;5274;51.992;8.518;2024-02-26T04:33:57;16.90;;;16.00;;
10452;SDS011;5274;51.992;8.518;2024-02-26T04:36:23;17.30;;;16.30;;
10452;SDS011;5274;51.992;8.518;2024-02-26T04:38:50;17.50;;;16.50;;
10452;SDS011;5274;51.992;8.518;2024-02-26T04:41:16;17.15;;;16.25;;
10452;SDS011;5274;51.992;8.518;2024-02-26T04:43:41;16.90;;;16.10;;
10452;SDS011;5274;51.992;8.518;2024-02-26T04:46:10;17.00;;;16.20;;
10452;SDS011;5274;51.992;8.518;2024-02-26T04:48:36;17.03;;;16.13;;
10452;SDS011;5274;51.992;8.518;2024-02-26T04:51:02;17.30;;;16.30;;
10452;SDS011;5274;51.992;8.518;2024-02-26T04:53:28;16.40;;;15.57;;
10452;SDS011;5274;51.992;8.518;2024-02-26T04:55:53;16.63;;;15.73;;
10452;SDS011;5274;51.992;8.518;2024-02-26T04:58:19;16.40;;;15.50;;
10452;SDS011;5274;51.992;8.518;2024-02-26T05:00:44;16.90;;;16.00;;
10452;SDS011;5274;51.992;8.518;2024-02-26T05:03:10;16.43;;;15.53;;
10452;SDS011;5274;51.992;8.518;2024-02-26T05:05:40;17.20;;;16.20;;
10452;SDS011;5274;51.992;8.518;2024-02-26T05:08:06;17.05;;;16.23;;
10452;SDS011;5274;51.992;8.518;2024-02-26T05:10:32;16.80;;;15.90;;
10452;SDS011;5274;51.992;8.518;2024-02-26T05:12:58;17.30;;;16.40;;
10452;SDS011;5274;51.992;8.518;2024-02-26T05:15:23;17.23;;;16.40;;
10452;SDS011;5274;51.992;8.518;2024-02-26T05:17:49;17.50;;;16.60;;
10452;SDS011;5274;51.992;8.518;2024-02-26T05:20:14;17.60;;;16.70;;
10452;SDS011;5274;51.992;8.518;2024-02-26T05:22:40;18.00;;;17.10;;
10452;SDS011;5274;51.992;8.518;2024-02-26T05:25:05;18.10;;;17.20;;
10452;SDS011;5274;51.992;8.518;2024-02-26T05:27:31;18.27;;;17.33;;
10452;SDS011;5274;51.992;8.518;2024-02-26T05:29:57;18.40;;;17.40;;
10452;SDS011;5274;51.992;8.518;2024-02-26T05:32:22;18.13;;;17.23;;
10452;SDS011;5274;51.992;8.518;2024-02-26T05:34:48;18.47;;;17.47;;
10452;SDS011;5274;51.992;8.518;2024-02-26T05:37:13;18.88;;;17.88;;
10452;SDS011;5274;51.992;8.518;2024-02-26T05:39:39;18.30;;;17.23;;
10452;SDS011;5274;51.992;8.518;2024-02-26T05:42:04;17.67;;;16.70;;
10452;SDS011;5274;51.992;8.518;2024-02-26T05:44:30;17.87;;;16.93;;
10452;SDS011;5274;51.992;8.518;2024-02-26T05:46:55;18.05;;;17.05;;
10452;SDS011;5274;51.992;8.518;2024-02-26T05:49:22;17.60;;;16.70;;
10452;SDS011;5274;51.992;8.518;2024-02-26T05:51:47;17.98;;;17.08;;
10452;SDS011;5274;51.992;8.518;2024-02-26T05:54:13;18.70;;;17.60;;
10452;SDS011;5274;51.992;8.518;2024-02-26T05:56:39;18.50;;;17.50;;
10452;SDS011;5274;51.992;8.518;2024-02-26T05:59:04;18.08;;;17.08;;
10452;SDS011;5274;51.992;8.518;2024-02-26T06:01:30;17.88;;;16.92;;
10452;SDS011;5274;51.992;8.518;2024-02-26T06:03:56;18.03;;;17.03;;
10452;SDS011;5274;51.992;8.518;2024-02-26T06:06:21;18.40;;;17.40;;
10452;SDS011;5274;51.992;8.518;2024-02-26T06:08:48;18.10;;;17.20;;
10452;SDS011;5274;51.992;8.518;2024-02-26T06:11:14;18.35;;;17.35;;
10452;SDS011;5274;51.992;8.518;2024-02-26T06:13:39;18.80;;;17.70;;
10452;SDS011;5274;51.992;8.518;2024-02-26T06:16:05;19.00;;;17.80;;
10452;SDS011;5274;51.992;8.518;2024-02-26T06:18:32;19.50;;;18.35;;
10452;SDS011;5274;51.992;8.518;2024-02-26T06:20:58;18.73;;;17.73;;
10452;SDS011;5274;51.992;8.518;2024-02-26T06:23:24;18.67;;;17.67;;
10452;SDS011;5274;51.992;8.518;2024-02-26T06:25:50;19.60;;;18.50;;
10452;SDS011;5274;51.992;8.518;2024-02-26T06:28:16;19.20;;;18.20;;
10452;SDS011;5274;51.992;8.518;2024-02-26T06:30:42;19.63;;;18.27;;
10452;SDS011;5274;51.992;8.518;2024-02-26T06:33:07;20.50;;;19.00;;
10452;SDS011;5274;51.992;8.518;2024-02-26T06:35:33;19.80;;;18.60;;
10452;SDS011;5274;51.992;8.518;2024-02-26T06:37:58;20.07;;;18.97;;
10452;SDS011;5274;51.992;8.518;2024-02-26T06:40:24;19.38;;;18.30;;
10452;SDS011;5274;51.992;8.518;2024-02-26T06:42:50;19.60;;;18.50;;
10452;SDS011;5274;51.992;8.518;2024-02-26T06:45:16;19.58;;;18.50;;
10452;SDS011;5274;51.992;8.518;2024-02-26T06:47:41;18.93;;;17.93;;
10452;SDS011;5274;51.992;8.518;2024-02-26T06:50:07;19.23;;;18.13;;
10452;SDS011;5274;51.992;8.518;2024-02-26T06:52:34;19.02;;;17.92;;
10452;SDS011;5274;51.992;8.518;2024-02-26T06:54:59;19.00;;;17.90;;
10452;SDS011;5274;51.992;8.518;2024-02-26T06:57:24;18.10;;;17.15;;
10452;SDS011;5274;51.992;8.518;2024-02-26T06:59:50;18.27;;;17.20;;
10452;SDS011;5274;51.992;8.518;2024-02-26T07:02:16;18.70;;;17.60;;
10452;SDS011;5274;51.992;8.518;2024-02-26T07:04:42;18.45;;;17.45;;
10452;SDS011;5274;51.992;8.518;2024-02-26T07:07:08;18.50;;;17.50;;
10452;SDS011;5274;51.992;8.518;2024-02-26T07:09:33;18.47;;;17.47;;
10452;SDS011;5274;51.992;8.518;2024-02-26T07:11:59;18.93;;;17.73;;
10452;SDS011;5274;51.992;8.518;2024-02-26T07:14:24;18.80;;;17.80;;
10452;SDS011;5274;51.992;8.518;2024-02-26T07:16:50;18.20;;;17.25;;
10452;SDS011;5274;51.992;8.518;2024-02-26T07:19:16;18.17;;;17.17;;
10452;SDS011;5274;51.992;8.518;2024-02-26T07:21:41;18.30;;;17.10;;
10452;SDS011;5274;51.992;8.518;2024-02-26T07:24:07;18.50;;;17.30;;
10452;SDS011;5274;51.992;8.518;2024-02-26T07:26:33;17.67;;;16.67;;
10452;SDS011;5274;51.992;8.518;2024-02-26T07:28:59;18.17;;;17.17;;
10452;SDS011;5274;51.992;8.518;2024-02-26T07:31:25;18.47;;;17.37;;
10452;SDS011;5274;51.992;8.518;2024-02-26T07:33:50;17.90;;;16.90;;
10452;SDS011;5274;51.992;8.518;2024-02-26T07:36:16;18.50;;;17.30;;
10452;SDS011;5274;51.992;8.518;2024-02-26T07:38:42;17.70;;;16.70;;
10452;SDS011;5274;51.992;8.518;2024-02-26T07:41:07;18.47;;;17.30;;
10452;SDS011;5274;51.992;8.518;2024-02-26T07:43:33;17.83;;;16.83;;
10452;SDS011;5274;51.992;8.518;2024-02-26T07:45:59;18.00;;;17.00;;
10452;SDS011;5274;51.992;8.518;2024-02-26T07:48:24;18.00;;;17.00;;
10452;SDS011;5274;51.992;8.518;2024-02-26T07:50:50;17.80;;;16.80;;
10452;SDS011;5274;51.992;8.518;2024-02-26T07:53:15;17.23;;;16.30;;
10452;SDS011;5274;51.992;8.518;2024-02-26T07:55:41;17.50;;;16.50;;
10452;SDS011;5274;51.992;8.518;2024-02-26T07:58:06;17.67;;;16.67;;
10452;SDS011;5274;51.992;8.518;2024-02-26T08:00:32;17.03;;;15.97;;
10452;SDS011;5274;51.992;8.518;2024-02-26T08:02:57;16.77;;;15.87;;
10452;SDS011;5274;51.992;8.518;2024-02-26T08:05:23;16.90;;;16.00;;
10452;SDS011;5274;51.992;8.518;2024-02-26T08:07:49;17.02;;;15.95;;
10452;SDS011;5274;51.992;8.518;2024-02-26T08:10:15;17.17;;;16.07;;
10452;SDS011;5274;51.992;8.518;2024-02-26T08:12:40;17.05;;;16.13;;
10452;SDS011;5274;51.992;8.518;2024-02-26T08:15:06;17.90;;;16.80;;
10452;SDS011;5274;51.992;8.518;2024-02-26T08:17:32;17.70;;;16.60;;
10452;SDS011;5274;51.992;8.518;2024-02-26T08:19:59;17.83;;;16.73;;
10452;SDS011;5274;51.992;8.518;2024-02-26T08:22:24;18.10;;;16.90;;
10452;SDS011;5274;51.992;8.518;2024-02-26T08:24:50;17.33;;;16.30;;
10452;SDS011;5274;51.992;8.518;2024-02-26T08:27:15;18.17;;;16.97;;
10452;SDS011;5274;51.992;8.518;2024-02-26T08:29:41;17.60;;;16.50;;
10452;SDS011;5274;51.992;8.518;2024-02-26T08:32:06;18.00;;;16.80;;
10452;SDS011;5274;51.992;8.518;2024-02-26T08:34:32;18.33;;;17.20;;
10452;SDS011;5274;51.992;8.518;2024-02-26T08:36:57;18.93;;;17.63;;
10452;SDS011;5274;51.992;8.518;2024-02-26T08:39:23;18.60;;;17.40;;
10452;SDS011;5274;51.992;8.518;2024-02-26T08:41:48;18.10;;;16.90;;
10452;SDS011;5274;51.992;8.518;2024-02-26T08:44:14;18.23;;;16.95;;
10452;SDS011;5274;51.992;8.518;2024-02-26T08:46:41;19.27;;;17.88;;
10452;SDS011;5274;51.992;8.518;2024-02-26T08:49:06;19.70;;;18.13;;
10452;SDS011;5274;51.992;8.518;2024-02-26T08:51:32;18.30;;;17.10;;
10452;SDS011;5274;51.992;8.518;2024-02-26T08:53:57;18.43;;;17.27;;
10452;SDS011;5274;51.992;8.518;2024-02-26T08:56:23;18.83;;;17.65;;
10452;SDS011;5274;51.992;8.518;2024-02-26T08:58:48;19.00;;;17.80;;
10452;SDS011;5274;51.992;8.518;2024-02-26T09:01:15;19.38;;;18.08;;
10452;SDS011;5274;51.992;8.518;2024-02-26T09:03:41;18.85;;;17.55;;
10452;SDS011;5274;51.992;8.518;2024-02-26T09:06:07;19.37;;;18.03;;
10452;SDS011;5274;51.992;8.518;2024-02-26T09:08:32;18.60;;;17.30;;
10452;SDS011;5274;51.992;8.518;2024-02-26T09:10:58;18.73;;;17.48;;
10452;SDS011;5274;51.992;8.518;2024-02-26T09:13:24;19.00;;;17.77;;
10452;SDS011;5274;51.992;8.518;2024-02-26T09:15:49;19.05;;;17.73;;
10452;SDS011;5274;51.992;8.518;2024-02-26T09:18:15;18.63;;;17.33;;
10452;SDS011;5274;51.992;8.518;2024-02-26T09:20:41;18.10;;;16.90;;
10452;SDS011;5274;51.992;8.518;2024-02-26T09:23:06;19.23;;;17.92;;
10452;SDS011;5274;51.992;8.518;2024-02-26T09:25:32;19.20;;;17.80;;
10452;SDS011;5274;51.992;8.518;2024-02-26T09:27:58;18.98;;;17.60;;
10452;SDS011;5274;51.992;8.518;2024-02-26T09:30:24;18.92;;;17.73;;
10452;SDS011;5274;51.992;8.518;2024-02-26T09:32:50;18.98;;;17.67;;
10452;SDS011;5274;51.992;8.518;2024-02-26T09:35:15;18.80;;;17.50;;
10452;SDS011;5274;51.992;8.518;2024-02-26T09:37:41;18.85;;;17.65;;
10452;SDS011;5274;51.992;8.518;2024-02-26T09:40:08;19.23;;;17.90;;
10452;SDS011;5274;51.992;8.518;2024-02-26T09:42:37;20.33;;;18.73;;
10452;SDS011;5274;51.992;8.518;2024-02-26T09:45:06;18.67;;;17.45;;
10452;SDS011;5274;51.992;8.518;2024-02-26T09:47:37;18.53;;;17.23;;
10452;SDS011;5274;51.992;8.518;2024-02-26T09:50:04;18.05;;;16.95;;
10452;SDS011;5274;51.992;8.518;2024-02-26T09:52:32;18.70;;;17.40;;
10452;SDS011;5274;51.992;8.518;2024-02-26T09:54:59;18.23;;;17.03;;
10452;SDS011;5274;51.992;8.518;2024-02-26T09:57:25;18.55;;;17.23;;
10452;SDS011;5274;51.992;8.518;2024-02-26T09:59:51;18.63;;;17.33;;
10452;SDS011;5274;51.992;8.518;2024-02-26T10:02:19;18.30;;;17.10;;
10452;SDS011;5274;51.992;8.518;2024-02-26T10:04:46;18.20;;;17.00;;
10452;SDS011;5274;51.992;8.518;2024-02-26T10:07:12;18.55;;;17.35;;
10452;SDS011;5274;51.992;8.518;2024-02-26T10:09:39;17.75;;;16.50;;
10452;SDS011;5274;51.992;8.518;2024-02-26T10:12:05;18.20;;;16.90;;
10452;SDS011;5274;51.992;8.518;2024-02-26T10:14:33;17.80;;;16.67;;
10452;SDS011;5274;51.992;8.518;2024-02-26T10:16:59;17.57;;;16.47;;
10452;SDS011;5274;51.992;8.518;2024-02-26T10:19:28;18.45;;;17.25;;
10452;SDS011;5274;51.992;8.518;2024-02-26T10:21:56;17.98;;;16.88;;
10452;SDS011;5274;51.992;8.518;2024-02-26T10:24:22;18.13;;;16.83;;
10452;SDS011;5274;51.992;8.518;2024-02-26T10:26:48;18.00;;;16.80;;
10452;SDS011;5274;51.992;8.518;2024-02-26T10:29:14;18.25;;;17.15;;
10452;SDS011;5274;51.992;8.518;2024-02-26T10:31:42;18.73;;;17.53;;
10452;SDS011;5274;51.992;8.518;2024-02-26T10:34:08;18.20;;;17.10;;
10452;SDS011;5274;51.992;8.518;2024-02-26T10:36:34;18.40;;;17.13;;
10452;SDS011;5274;51.992;8.518;2024-02-26T10:39:01;18.25;;;17.05;;
10452;SDS011;5274;51.992;8.518;2024-02-26T10:41:30;17.67;;;16.58;;
10452;SDS011;5274;51.992;8.518;2024-02-26T10:43:57;17.60;;;16.50;;
10452;SDS011;5274;51.992;8.518;2024-02-26T10:46:23;17.35;;;16.17;;
10452;SDS011;5274;51.992;8.518;2024-02-26T10:48:50;17.58;;;16.33;;
10452;SDS011;5274;51.992;8.518;2024-02-26T10:51:16;17.70;;;16.40;;
10452;SDS011;5274;51.992;8.518;2024-02-26T10:53:50;16.85;;;15.68;;
10452;SDS011;5274;51.992;8.518;2024-02-26T10:56:21;17.00;;;15.90;;
10452;SDS011;5274;51.992;8.518;2024-02-26T10:58:50;17.63;;;16.33;;
10452;SDS011;5274;51.992;8.518;2024-02-26T11:01:17;17.30;;;16.20;;
10452;SDS011;5274;51.992;8.518;2024-02-26T11:03:44;17.95;;;16.83;;
10452;SDS011;5274;51.992;8.518;2024-02-26T11:06:10;17.77;;;16.67;;
10452;SDS011;5274;51.992;8.518;2024-02-26T11:08:37;18.70;;;17.40;;
10452;SDS011;5274;51.992;8.518;2024-02-26T11:11:03;17.20;;;16.15;;
10452;SDS011;5274;51.992;8.518;2024-02-26T11:13:30;17.30;;;16.20;;
10452;SDS011;5274;51.992;8.518;2024-02-26T11:15:56;17.77;;;16.77;;
10452;SDS011;5274;51.992;8.518;2024-02-26T11:18:26;17.70;;;16.60;;
10452;SDS011;5274;51.992;8.518;2024-02-26T11:20:52;17.55;;;16.45;;
10452;SDS011;5274;51.992;8.518;2024-02-26T11:23:22;18.05;;;16.95;;
10452;SDS011;5274;51.992;8.518;2024-02-26T11:25:48;18.10;;;17.00;;
10452;SDS011;5274;51.992;8.518;2024-02-26T11:28:17;18.20;;;17.10;;
10452;SDS011;5274;51.992;8.518;2024-02-26T11:30:46;19.10;;;17.70;;
10452;SDS011;5274;51.992;8.518;2024-02-26T11:33:13;18.38;;;17.20;;
10452;SDS011;5274;51.992;8.518;2024-02-26T11:35:40;17.60;;;16.50;;
10452;SDS011;5274;51.992;8.518;2024-02-26T11:38:06;17.73;;;16.63;;
10452;SDS011;5274;51.992;8.518;2024-02-26T11:40:32;17.63;;;16.52;;
10452;SDS011;5274;51.992;8.518;2024-02-26T11:43:03;18.23;;;17.07;;
10452;SDS011;5274;51.992;8.518;2024-02-26T11:48:11;18.60;;;17.30;;
10452;SDS011;5274;51.992;8.518;2024-02-26T11:50:49;17.88;;;16.80;;
10452;SDS011;5274;51.992;8.518;2024-02-26T11:55:48;18.52;;;17.33;;
10452;SDS011;5274;51.992;8.518;2024-02-26T12:04:13;18.27;;;17.17;;
10452;SDS011;5274;51.992;8.518;2024-02-26T12:06:42;19.05;;;17.85;;
10452;SDS011;5274;51.992;8.518;2024-02-26T12:12:06;19.20;;;18.00;;
10452;SDS011;5274;51.992;8.518;2024-02-26T12:14:33;19.40;;;18.10;;
10452;SDS011;5274;51.992;8.518;2024-02-26T12:17:02;19.48;;;18.17;;
10452;SDS011;5274;51.992;8.518;2024-02-26T12:19:32;19.20;;;18.00;;
10452;SDS011;5274;51.992;8.518;2024-02-26T12:21:59;19.40;;;18.15;;
10452;SDS011;5274;51.992;8.518;2024-02-26T12:24:25;19.37;;;18.10;;
10452;SDS011;5274;51.992;8.518;2024-02-26T12:26:50;19.27;;;17.92;;
10452;SDS011;5274;51.992;8.518;2024-02-26T12:29:16;19.40;;;18.10;;
10452;SDS011;5274;51.992;8.518;2024-02-26T12:31:42;19.58;;;18.17;;
10452;SDS011;5274;51.992;8.518;2024-02-26T12:34:07;19.53;;;18.20;;
10452;SDS011;5274;51.992;8.518;2024-02-26T12:36:34;19.95;;;18.55;;
10452;SDS011;5274;51.992;8.518;2024-02-26T12:39:02;18.97;;;17.67;;
10452;SDS011;5274;51.992;8.518;2024-02-26T12:41:28;18.92;;;17.73;;
10452;SDS011;5274;51.992;8.518;2024-02-26T12:43:55;19.20;;;18.00;;
10452;SDS011;5274;51.992;8.518;2024-02-26T12:46:21;19.60;;;18.30;;
10452;SDS011;5274;51.992;8.518;2024-02-26T12:48:46;19.20;;;18.00;;
10452;SDS011;5274;51.992;8.518;2024-02-26T12:51:12;18.90;;;17.70;;
10452;SDS011;5274;51.992;8.518;2024-02-26T12:53:40;18.85;;;17.65;;
10452;SDS011;5274;51.992;8.518;2024-02-26T12:56:07;18.90;;;17.70;;
10452;SDS011;5274;51.992;8.518;2024-02-26T12:58:34;18.50;;;17.40;;
10452;SDS011;5274;51.992;8.518;2024-02-26T13:01:03;19.40;;;18.00;;
10452;SDS011;5274;51.992;8.518;2024-02-26T13:03:29;19.60;;;18.30;;
10452;SDS011;5274;51.992;8.518;2024-02-26T13:05:55;18.35;;;17.27;;
10452;SDS011;5274;51.992;8.518;2024-02-26T13:08:21;17.70;;;16.70;;
10452;SDS011;5274;51.992;8.518;2024-02-26T13:10:46;19.70;;;18.30;;
10452;SDS011;5274;51.992;8.518;2024-02-26T13:13:15;17.08;;;16.08;;
10452;SDS011;5274;51.992;8.518;2024-02-26T13:15:42;17.73;;;16.73;;
10452;SDS011;5274;51.992;8.518;2024-02-26T13:18:09;18.23;;;17.23;;
10452;SDS011;5274;51.992;8.518;2024-02-26T13:20:36;19.27;;;17.87;;
10452;SDS011;5274;51.992;8.518;2024-02-26T13:23:05;17.67;;;16.67;;
10452;SDS011;5274;51.992;8.518;2024-02-26T13:25:37;17.25;;;16.25;;
10452;SDS011;5274;51.992;8.518;2024-02-26T13:28:07;17.10;;;16.10;;
10452;SDS011;5274;51.992;8.518;2024-02-26T13:30:37;17.30;;;16.30;;
10452;SDS011;5274;51.992;8.518;2024-02-26T13:33:11;16.95;;;15.95;;
10452;SDS011;5274;51.992;8.518;2024-02-26T13:35:38;17.30;;;16.30;;
10452;SDS011;5274;51.992;8.518;2024-02-26T13:38:04;17.77;;;16.70;;
10452;SDS011;5274;51.992;8.518;2024-02-26T13:40:31;17.38;;;16.38;;
10452;SDS011;5274;51.992;8.518;2024-02-26T13:42:57;17.23;;;16.23;;
10452;SDS011;5274;51.992;8.518;2024-02-26T13:45:22;17.20;;;16.20;;
10452;SDS011;5274;51.992;8.518;2024-02-26T13:47:48;17.50;;;16.20;;
10452;SDS011;5274;51.992;8.518;2024-02-26T13:50:13;17.90;;;16.80;;
10452;SDS011;5274;51.992;8.518;2024-02-26T13:52:39;16.67;;;15.80;;
10452;SDS011;5274;51.992;8.518;2024-02-26T13:55:04;17.10;;;16.10;;
10452;SDS011;5274;51.992;8.518;2024-02-26T13:57:30;16.42;;;15.52;;
10452;SDS011;5274;51.992;8.518;2024-02-26T13:59:56;17.17;;;16.17;;
10452;SDS011;5274;51.992;8.518;2024-02-26T14:02:21;16.90;;;16.00;;
10452;SDS011;5274;51.992;8.518;2024-02-26T14:04:47;17.13;;;16.13;;
10452;SDS011;5274;51.992;8.518;2024-02-26T14:07:13;17.17;;;16.20;;
10452;SDS011;5274;51.992;8.518;2024-02-26T14:09:39;16.55;;;15.65;;
10452;SDS011;5274;51.992;8.518;2024-02-26T14:12:04;16.10;;;15.20;;
10452;SDS011;5274;51.992;8.518;2024-02-26T14:14:30;16.77;;;15.77;;
10452;SDS011;5274;51.992;8.518;2024-02-26T14:17:00;16.47;;;15.57;;
10452;SDS011;5274;51.992;8.518;2024-02-26T14:19:26;16.88;;;15.80;;
10452;SDS011;5274;51.992;8.518;2024-02-26T14:21:51;16.30;;;15.40;;
10452;SDS011;5274;51.992;8.518;2024-02-26T14:24:17;16.63;;;15.73;;
10452;SDS011;5274;51.992;8.518;2024-02-26T14:26:42;16.73;;;15.73;;
10452;SDS011;5274;51.992;8.518;2024-02-26T14:29:08;16.50;;;15.50;;
10452;SDS011;5274;51.992;8.518;2024-02-26T14:31:33;16.80;;;15.90;;
10452;SDS011;5274;51.992;8.518;2024-02-26T14:33:59;16.77;;;15.77;;
10452;SDS011;5274;51.992;8.518;2024-02-26T14:36:25;16.52;;;15.52;;
10452;SDS011;5274;51.992;8.518;2024-02-26T14:38:51;16.23;;;15.33;;
10452;SDS011;5274;51.992;8.518;2024-02-26T14:41:16;16.50;;;15.70;;